Varna — LZFZ — position and weather

sailwx.info

Track history (hours):
 
Tides and Currents Weather Stations Pressure Air Temp Water Temp Dewpoint Dewpoint Depression Visibility Wind Speed Wind Dir Waves Ship Positions

Varna

Last reported at 2018-Jun-21 23:57 UTC. Time now 2018-Jun-22 02:00 UTC.
Position N 45°20' E 036°40'.

Length 140 m; draft 3.3 m.

Type: Cargo ship. MMSI: 20713600.

Date/timePositionNaut miles runAvg speedWind from/ knotsBaromVisibWave heightAir tempDewpointWater temp
2018-Jun-21 23:57N 45°20' E 036°40'0 0.0
2018-Jun-21 23:29N 45°20' E 036°40'0 0.0
2018-Jun-21 22:56N 45°20' E 036°40'0 0.0
2018-Jun-21 22:30N 45°20' E 036°40'0 0.0
2018-Jun-21 22:00N 45°20' E 036°40'0 0.0
2018-Jun-21 21:26N 45°20' E 036°40'0 0.0
2018-Jun-21 21:00N 45°20' E 036°40'0 0.0
2018-Jun-21 20:29N 45°20' E 036°40'0 0.0
2018-Jun-21 19:59N 45°20' E 036°40'0 0.0
2018-Jun-21 19:30N 45°20' E 036°40'0 0.0
2018-Jun-21 18:57N 45°20' E 036°40'0 0.0
2018-Jun-21 18:29N 45°20' E 036°40'0 0.0
2018-Jun-21 17:59N 45°20' E 036°40'0 0.1
2018-Jun-21 17:30N 45°20' E 036°40'1 1.9
2018-Jun-21 17:00N 45°21' E 036°40'2 3.5
2018-Jun-21 16:30N 45°23' E 036°40'0 0.9
2018-Jun-21 16:00N 45°23' E 036°41'0 0.1
2018-Jun-21 15:30N 45°23' E 036°41'0 0.0
2018-Jun-21 15:00N 45°23' E 036°41'0 0.0
2018-Jun-21 14:30N 45°23' E 036°41'0 0.0
2018-Jun-21 14:00N 45°23' E 036°41'0 0.0
2018-Jun-21 13:30N 45°23' E 036°41'0 0.0
2018-Jun-21 13:00N 45°23' E 036°41'0 0.0
2018-Jun-21 12:27N 45°23' E 036°41'0 0.0
2018-Jun-21 11:57N 45°23' E 036°41'0 0.0
2018-Jun-21 11:30N 45°23' E 036°41'0 0.0
2018-Jun-21 11:00N 45°23' E 036°41'0 0.0
2018-Jun-21 10:30N 45°23' E 036°41'0 0.0
2018-Jun-21 10:00N 45°23' E 036°41'0 0.0
2018-Jun-21 09:30N 45°23' E 036°41'0 0.0
2018-Jun-21 09:00N 45°23' E 036°41'0 0.0
2018-Jun-21 08:30N 45°23' E 036°41'0 0.0
2018-Jun-21 08:00N 45°23' E 036°41'0 0.0
2018-Jun-21 07:30N 45°23' E 036°41'0 0.0
2018-Jun-21 07:00N 45°23' E 036°41'0 0.0
2018-Jun-21 06:30N 45°23' E 036°41'0 0.0
2018-Jun-21 06:00N 45°23' E 036°41'0 0.0
2018-Jun-21 05:30N 45°23' E 036°41'0 0.0
2018-Jun-21 05:00N 45°23' E 036°41'0 0.0
2018-Jun-21 04:30N 45°23' E 036°41'0 0.0
2018-Jun-21 04:00N 45°23' E 036°41'0 0.0
2018-Jun-21 03:30N 45°23' E 036°41'0 0.0
2018-Jun-21 03:00N 45°23' E 036°41'0 0.0
2018-Jun-21 02:30N 45°23' E 036°41'0 0.0
2018-Jun-21 02:00N 45°23' E 036°41'0 0.0
2018-Jun-21 01:30N 45°23' E 036°41'0 0.0
2018-Jun-21 01:00N 45°23' E 036°41'0 0.0
2018-Jun-21 00:30N 45°23' E 036°41'0 0.0
2018-Jun-21 00:00N 45°23' E 036°41'0 0.0
2018-Jun-20 23:30N 45°23' E 036°41'0 0.0
2018-Jun-20 23:00N 45°23' E 036°41'0 0.1
2018-Jun-20 22:30N 45°23' E 036°41'1 2.5
2018-Jun-20 22:00N 45°22' E 036°40'4 7.1
2018-Jun-20 21:30N 45°20' E 036°36'4 7.7
2018-Jun-20 21:00N 45°19' E 036°31'3 6.1
2018-Jun-20 20:30N 45°16' E 036°29'4 6.6
2018-Jun-20 19:58N 45°12' E 036°29'4 7.4
2018-Jun-20 19:22N 45°08' E 036°30'4 7.5
2018-Jun-20 18:48N 45°04' E 036°30'107 5.7
2018-Jun-20 00:13N 44°15' E 034°17'1 4.9
2018-Jun-20 00:01N 44°15' E 034°16'64 5.5
2018-Jun-19 12:22N 44°00' E 032°49'3 7.7
2018-Jun-19 12:00N 43°60' E 032°45'4 7.8
2018-Jun-19 11:30N 43°59' E 032°40'4 7.9
2018-Jun-19 11:00N 43°58' E 032°34'4 7.8
2018-Jun-19 10:30N 43°57' E 032°29'4 7.5
2018-Jun-19 10:00N 43°56' E 032°24'4 7.3
2018-Jun-19 09:29N 43°55' E 032°19'3 7.0
2018-Jun-19 09:00N 43°55' E 032°14'3 6.8
2018-Jun-19 08:30N 43°54' E 032°10'3 6.6
2018-Jun-19 08:00N 43°53' E 032°05'3 5.9
2018-Jun-19 07:30N 43°52' E 032°01'2 4.5
2018-Jun-19 07:01N 43°52' E 031°58'3 4.1
2018-Jun-19 06:12N 43°51' E 031°54'12 4.2
2018-Jun-19 03:20N 43°48' E 031°38'2 4.7
2018-Jun-19 02:51N 43°48' E 031°35'2 4.8
2018-Jun-19 02:25N 43°47' E 031°32'2 4.9
2018-Jun-19 02:00N 43°47' E 031°29'2 4.8
2018-Jun-19 01:30N 43°46' E 031°26'2 4.9
2018-Jun-19 01:00N 43°46' E 031°22'3 5.1
2018-Jun-19 00:30N 43°45' E 031°19'3 5.1
2018-Jun-19 00:00N 43°45' E 031°16'2 5.0
2018-Jun-18 23:30N 43°44' E 031°12'3 5.0
2018-Jun-18 23:00N 43°43' E 031°09'2 5.1
2018-Jun-18 22:30N 43°42' E 031°06'3 5.1
2018-Jun-18 22:00N 43°42' E 031°02'3 5.1
2018-Jun-18 21:30N 43°41' E 030°59'3 5.1
2018-Jun-18 20:57N 43°40' E 030°55'2 5.1
2018-Jun-18 20:30N 43°40' E 030°52'3 5.2
2018-Jun-18 19:58N 43°39' E 030°48'7 5.1
2018-Jun-18 18:38N 43°38' E 030°39'1 5.0
2018-Jun-18 18:29N 43°38' E 030°38'4 4.8
2018-Jun-18 17:33N 43°37' E 030°32'1 4.6
2018-Jun-18 17:27N 43°37' E 030°31'2 4.5
2018-Jun-18 17:00N 43°37' E 030°29'2 4.3
2018-Jun-18 16:27N 43°36' E 030°25'2 4.3
2018-Jun-18 16:00N 43°36' E 030°23'2 4.1
2018-Jun-18 15:30N 43°35' E 030°20'2 4.1
2018-Jun-18 15:00N 43°35' E 030°17'2 4.0
2018-Jun-18 14:30N 43°34' E 030°15'2 3.9
2018-Jun-18 14:00N 43°34' E 030°12'2 3.8
2018-Jun-18 13:24N 43°34' E 030°09'1 3.7
2018-Jun-18 13:00N 43°33' E 030°07'4 3.7
2018-Jun-18 12:01N 43°32' E 030°02'1 3.7
2018-Jun-18 11:50N 43°32' E 030°01'  
2018-Jun-14 23:08N 43°16' E 028°14'1 5.0
2018-Jun-14 23:00N 43°16' E 028°15'7 5.0
2018-Jun-14 21:41N 43°19' E 028°23'1 5.1
2018-Jun-14 21:24N 43°19' E 028°25'3 1.1
2018-Jun-14 19:06N 43°22' E 028°26'3 0.5
2018-Jun-14 12:33N 43°20' E 028°29'0 4.3
2018-Jun-14 12:29N 43°20' E 028°29'2 4.3
2018-Jun-14 12:00N 43°21' E 028°32'2 4.7
2018-Jun-14 11:30N 43°21' E 028°35'3 5.1
2018-Jun-14 11:00N 43°22' E 028°39'12 5.8
2018-Jun-14 08:56N 43°24' E 028°55'4 6.2
2018-Jun-14 08:21N 43°25' E 028°60'2 6.2
2018-Jun-14 08:00N 43°25' E 029°03'7 6.3
2018-Jun-14 06:57N 43°27' E 029°12'3 6.5
2018-Jun-14 06:30N 43°27' E 029°16'3 6.5
2018-Jun-14 06:00N 43°28' E 029°20'7 6.5
2018-Jun-14 04:54N 43°30' E 029°29'3 6.4
2018-Jun-14 04:30N 43°31' E 029°33'3 6.3
2018-Jun-14 04:00N 43°31' E 029°37'4 6.3
2018-Jun-14 03:26N 43°32' E 029°42'3 6.5
2018-Jun-14 03:00N 43°33' E 029°46'3 6.6
2018-Jun-14 02:30N 43°34' E 029°50'3 6.7
2018-Jun-14 02:00N 43°35' E 029°54'3 6.6
2018-Jun-14 01:30N 43°35' E 029°59'3 6.5
2018-Jun-14 01:00N 43°36' E 030°03'3 6.5
2018-Jun-14 00:30N 43°37' E 030°08'3 6.5
2018-Jun-14 00:00N 43°38' E 030°12'3 6.4
2018-Jun-13 23:30N 43°38' E 030°16'3 6.4
2018-Jun-13 23:00N 43°39' E 030°20'3 6.4
2018-Jun-13 22:30N 43°40' E 030°25'3 6.4
2018-Jun-13 21:59N 43°41' E 030°29'3 6.3
2018-Jun-13 21:30N 43°41' E 030°33'4 6.4
2018-Jun-13 20:56N 43°43' E 030°38'3 6.4
2018-Jun-13 20:30N 43°44' E 030°41'3 6.4
2018-Jun-13 20:00N 43°45' E 030°46'3 6.4
2018-Jun-13 19:30N 43°45' E 030°50'9 6.4
2018-Jun-13 18:05N 43°46' E 031°02'5 6.4
2018-Jun-13 17:20N 43°47' E 031°09'6 6.1
2018-Jun-13 16:18N 43°49' E 031°17'8 5.7
2018-Jun-13 14:53N 43°51' E 031°28'2 5.5
2018-Jun-13 14:30N 43°51' E 031°31'3 5.4
2018-Jun-13 14:00N 43°52' E 031°35'3 5.3
2018-Jun-13 13:30N 43°53' E 031°38'3 5.4
2018-Jun-13 12:57N 43°54' E 031°42'2 5.3
2018-Jun-13 12:30N 43°54' E 031°45'3 5.2
2018-Jun-13 12:00N 43°55' E 031°49'3 5.2
2018-Jun-13 11:30N 43°56' E 031°52'3 5.4
2018-Jun-13 11:00N 43°57' E 031°56'3 5.5
2018-Jun-13 10:30N 43°57' E 031°60'3 5.6
2018-Jun-13 10:00N 43°58' E 032°03'3 5.8
2018-Jun-13 09:26N 43°59' E 032°08'3 6.1
2018-Jun-13 09:00N 43°60' E 032°11'3 6.1
2018-Jun-13 08:30N 44°01' E 032°15'4 6.2
2018-Jun-13 07:52N 44°01' E 032°21'3 6.3
2018-Jun-13 07:21N 44°02' E 032°25'2 6.3
2018-Jun-13 07:00N 44°02' E 032°28'3 6.3
2018-Jun-13 06:28N 44°03' E 032°33'5 6.3
2018-Jun-13 05:45N 44°04' E 032°39'4 6.2
2018-Jun-13 05:06N 44°05' E 032°44'1 6.0
2018-Jun-13 04:53N 44°05' E 032°46'2 6.0
2018-Jun-13 04:30N 44°06' E 032°49'3 6.2
2018-Jun-13 04:00N 44°07' E 032°53'3 6.3
2018-Jun-13 03:29N 44°08' E 032°57'3 6.4
2018-Jun-13 03:00N 44°10' E 033°01'3 6.5
2018-Jun-13 02:30N 44°11' E 033°05'3 6.6
2018-Jun-13 02:00N 44°12' E 033°10'3 6.6
2018-Jun-13 01:30N 44°14' E 033°14'3 6.5
2018-Jun-13 01:00N 44°15' E 033°18'3 6.4
2018-Jun-13 00:30N 44°16' E 033°22'3 6.2
2018-Jun-13 00:00N 44°17' E 033°26'3 6.4
2018-Jun-12 23:30N 44°18' E 033°30'3 6.3
2018-Jun-12 22:59N 44°18' E 033°35'3 6.1
2018-Jun-12 22:30N 44°18' E 033°39'10 5.8
2018-Jun-12 20:48N 44°18' E 033°53'  
Track history (hours):
 
Tides and Currents Weather Stations Pressure Air Temp Water Temp Dewpoint Dewpoint Depression Visibility Wind Speed Wind Dir Waves Ship Positions

Varna

Last reported at 2018-Jun-21 23:57 UTC. Time now 2018-Jun-22 02:00 UTC.
Position N 45°20' E 036°40'.

Length 140 m; draft 3.3 m.

Type: Cargo ship. MMSI: 20713600.

Date/timePositionNaut miles runAvg speedWind from/ knotsBaromVisibWave heightAir tempDewpointWater temp
2018-Jun-21 23:57N 45°20' E 036°40'0 0.0
2018-Jun-21 23:29N 45°20' E 036°40'0 0.0
2018-Jun-21 22:56N 45°20' E 036°40'0 0.0
2018-Jun-21 22:30N 45°20' E 036°40'0 0.0
2018-Jun-21 22:00N 45°20' E 036°40'0 0.0
2018-Jun-21 21:26N 45°20' E 036°40'0 0.0
2018-Jun-21 21:00N 45°20' E 036°40'0 0.0
2018-Jun-21 20:29N 45°20' E 036°40'0 0.0
2018-Jun-21 19:59N 45°20' E 036°40'0 0.0
2018-Jun-21 19:30N 45°20' E 036°40'0 0.0
2018-Jun-21 18:57N 45°20' E 036°40'0 0.0
2018-Jun-21 18:29N 45°20' E 036°40'0 0.0
2018-Jun-21 17:59N 45°20' E 036°40'0 0.1
2018-Jun-21 17:30N 45°20' E 036°40'1 1.9
2018-Jun-21 17:00N 45°21' E 036°40'2 3.5
2018-Jun-21 16:30N 45°23' E 036°40'0 0.9
2018-Jun-21 16:00N 45°23' E 036°41'0 0.1
2018-Jun-21 15:30N 45°23' E 036°41'0 0.0
2018-Jun-21 15:00N 45°23' E 036°41'0 0.0
2018-Jun-21 14:30N 45°23' E 036°41'0 0.0
2018-Jun-21 14:00N 45°23' E 036°41'0 0.0
2018-Jun-21 13:30N 45°23' E 036°41'0 0.0
2018-Jun-21 13:00N 45°23' E 036°41'0 0.0
2018-Jun-21 12:27N 45°23' E 036°41'0 0.0
2018-Jun-21 11:57N 45°23' E 036°41'0 0.0
2018-Jun-21 11:30N 45°23' E 036°41'0 0.0
2018-Jun-21 11:00N 45°23' E 036°41'0 0.0
2018-Jun-21 10:30N 45°23' E 036°41'0 0.0
2018-Jun-21 10:00N 45°23' E 036°41'0 0.0
2018-Jun-21 09:30N 45°23' E 036°41'0 0.0
2018-Jun-21 09:00N 45°23' E 036°41'0 0.0
2018-Jun-21 08:30N 45°23' E 036°41'0 0.0
2018-Jun-21 08:00N 45°23' E 036°41'0 0.0
2018-Jun-21 07:30N 45°23' E 036°41'0 0.0
2018-Jun-21 07:00N 45°23' E 036°41'0 0.0
2018-Jun-21 06:30N 45°23' E 036°41'0 0.0
2018-Jun-21 06:00N 45°23' E 036°41'0 0.0
2018-Jun-21 05:30N 45°23' E 036°41'0 0.0
2018-Jun-21 05:00N 45°23' E 036°41'0 0.0
2018-Jun-21 04:30N 45°23' E 036°41'0 0.0
2018-Jun-21 04:00N 45°23' E 036°41'0 0.0
2018-Jun-21 03:30N 45°23' E 036°41'0 0.0
2018-Jun-21 03:00N 45°23' E 036°41'0 0.0
2018-Jun-21 02:30N 45°23' E 036°41'0 0.0
2018-Jun-21 02:00N 45°23' E 036°41'0 0.0
2018-Jun-21 01:30N 45°23' E 036°41'0 0.0
2018-Jun-21 01:00N 45°23' E 036°41'0 0.0
2018-Jun-21 00:30N 45°23' E 036°41'0 0.0
2018-Jun-21 00:00N 45°23' E 036°41'0 0.0
2018-Jun-20 23:30N 45°23' E 036°41'0 0.0
2018-Jun-20 23:00N 45°23' E 036°41'0 0.1
2018-Jun-20 22:30N 45°23' E 036°41'1 2.5
2018-Jun-20 22:00N 45°22' E 036°40'4 7.1
2018-Jun-20 21:30N 45°20' E 036°36'4 7.7
2018-Jun-20 21:00N 45°19' E 036°31'3 6.1
2018-Jun-20 20:30N 45°16' E 036°29'4 6.6
2018-Jun-20 19:58N 45°12' E 036°29'4 7.4
2018-Jun-20 19:22N 45°08' E 036°30'4 7.5
2018-Jun-20 18:48N 45°04' E 036°30'107 5.7
2018-Jun-20 00:13N 44°15' E 034°17'1 4.9
2018-Jun-20 00:01N 44°15' E 034°16'64 5.5
2018-Jun-19 12:22N 44°00' E 032°49'3 7.7
2018-Jun-19 12:00N 43°60' E 032°45'4 7.8
2018-Jun-19 11:30N 43°59' E 032°40'4 7.9
2018-Jun-19 11:00N 43°58' E 032°34'4 7.8
2018-Jun-19 10:30N 43°57' E 032°29'4 7.5
2018-Jun-19 10:00N 43°56' E 032°24'4 7.3
2018-Jun-19 09:29N 43°55' E 032°19'3 7.0
2018-Jun-19 09:00N 43°55' E 032°14'3 6.8
2018-Jun-19 08:30N 43°54' E 032°10'3 6.6
2018-Jun-19 08:00N 43°53' E 032°05'3 5.9
2018-Jun-19 07:30N 43°52' E 032°01'2 4.5
2018-Jun-19 07:01N 43°52' E 031°58'3 4.1
2018-Jun-19 06:12N 43°51' E 031°54'12 4.2
2018-Jun-19 03:20N 43°48' E 031°38'2 4.7
2018-Jun-19 02:51N 43°48' E 031°35'2 4.8
2018-Jun-19 02:25N 43°47' E 031°32'2 4.9
2018-Jun-19 02:00N 43°47' E 031°29'2 4.8
2018-Jun-19 01:30N 43°46' E 031°26'2 4.9
2018-Jun-19 01:00N 43°46' E 031°22'3 5.1
2018-Jun-19 00:30N 43°45' E 031°19'3 5.1
2018-Jun-19 00:00N 43°45' E 031°16'2 5.0
2018-Jun-18 23:30N 43°44' E 031°12'3 5.0
2018-Jun-18 23:00N 43°43' E 031°09'2 5.1
2018-Jun-18 22:30N 43°42' E 031°06'3 5.1
2018-Jun-18 22:00N 43°42' E 031°02'3 5.1
2018-Jun-18 21:30N 43°41' E 030°59'3 5.1
2018-Jun-18 20:57N 43°40' E 030°55'2 5.1
2018-Jun-18 20:30N 43°40' E 030°52'3 5.2
2018-Jun-18 19:58N 43°39' E 030°48'7 5.1
2018-Jun-18 18:38N 43°38' E 030°39'1 5.0
2018-Jun-18 18:29N 43°38' E 030°38'4 4.8
2018-Jun-18 17:33N 43°37' E 030°32'1 4.6
2018-Jun-18 17:27N 43°37' E 030°31'2 4.5
2018-Jun-18 17:00N 43°37' E 030°29'2 4.3
2018-Jun-18 16:27N 43°36' E 030°25'2 4.3
2018-Jun-18 16:00N 43°36' E 030°23'2 4.1
2018-Jun-18 15:30N 43°35' E 030°20'2 4.1
2018-Jun-18 15:00N 43°35' E 030°17'2 4.0
2018-Jun-18 14:30N 43°34' E 030°15'2 3.9
2018-Jun-18 14:00N 43°34' E 030°12'2 3.8
2018-Jun-18 13:24N 43°34' E 030°09'1 3.7
2018-Jun-18 13:00N 43°33' E 030°07'4 3.7
2018-Jun-18 12:01N 43°32' E 030°02'1 3.7
2018-Jun-18 11:50N 43°32' E 030°01'  
2018-Jun-14 23:08N 43°16' E 028°14'1 5.0
2018-Jun-14 23:00N 43°16' E 028°15'7 5.0
2018-Jun-14 21:41N 43°19' E 028°23'1 5.1
2018-Jun-14 21:24N 43°19' E 028°25'3 1.1
2018-Jun-14 19:06N 43°22' E 028°26'3 0.5
2018-Jun-14 12:33N 43°20' E 028°29'0 4.3
2018-Jun-14 12:29N 43°20' E 028°29'2 4.3
2018-Jun-14 12:00N 43°21' E 028°32'2 4.7
2018-Jun-14 11:30N 43°21' E 028°35'3 5.1
2018-Jun-14 11:00N 43°22' E 028°39'12 5.8
2018-Jun-14 08:56N 43°24' E 028°55'4 6.2
2018-Jun-14 08:21N 43°25' E 028°60'2 6.2
2018-Jun-14 08:00N 43°25' E 029°03'7 6.3
2018-Jun-14 06:57N 43°27' E 029°12'3 6.5
2018-Jun-14 06:30N 43°27' E 029°16'3 6.5
2018-Jun-14 06:00N 43°28' E 029°20'7 6.5
2018-Jun-14 04:54N 43°30' E 029°29'3 6.4
2018-Jun-14 04:30N 43°31' E 029°33'3 6.3
2018-Jun-14 04:00N 43°31' E 029°37'4 6.3
2018-Jun-14 03:26N 43°32' E 029°42'3 6.5
2018-Jun-14 03:00N 43°33' E 029°46'3 6.6
2018-Jun-14 02:30N 43°34' E 029°50'3 6.7
2018-Jun-14 02:00N 43°35' E 029°54'3 6.6
2018-Jun-14 01:30N 43°35' E 029°59'3 6.5
2018-Jun-14 01:00N 43°36' E 030°03'3 6.5
2018-Jun-14 00:30N 43°37' E 030°08'3 6.5
2018-Jun-14 00:00N 43°38' E 030°12'3 6.4
2018-Jun-13 23:30N 43°38' E 030°16'3 6.4
2018-Jun-13 23:00N 43°39' E 030°20'3 6.4
2018-Jun-13 22:30N 43°40' E 030°25'3 6.4
2018-Jun-13 21:59N 43°41' E 030°29'3 6.3
2018-Jun-13 21:30N 43°41' E 030°33'4 6.4
2018-Jun-13 20:56N 43°43' E 030°38'3 6.4
2018-Jun-13 20:30N 43°44' E 030°41'3 6.4
2018-Jun-13 20:00N 43°45' E 030°46'3 6.4
2018-Jun-13 19:30N 43°45' E 030°50'9 6.4
2018-Jun-13 18:05N 43°46' E 031°02'5 6.4
2018-Jun-13 17:20N 43°47' E 031°09'6 6.1
2018-Jun-13 16:18N 43°49' E 031°17'8 5.7
2018-Jun-13 14:53N 43°51' E 031°28'2 5.5
2018-Jun-13 14:30N 43°51' E 031°31'3 5.4
2018-Jun-13 14:00N 43°52' E 031°35'3 5.3
2018-Jun-13 13:30N 43°53' E 031°38'3 5.4
2018-Jun-13 12:57N 43°54' E 031°42'2 5.3
2018-Jun-13 12:30N 43°54' E 031°45'3 5.2
2018-Jun-13 12:00N 43°55' E 031°49'3 5.2
2018-Jun-13 11:30N 43°56' E 031°52'3 5.4
2018-Jun-13 11:00N 43°57' E 031°56'3 5.5
2018-Jun-13 10:30N 43°57' E 031°60'3 5.6
2018-Jun-13 10:00N 43°58' E 032°03'3 5.8
2018-Jun-13 09:26N 43°59' E 032°08'3 6.1
2018-Jun-13 09:00N 43°60' E 032°11'3 6.1
2018-Jun-13 08:30N 44°01' E 032°15'4 6.2
2018-Jun-13 07:52N 44°01' E 032°21'3 6.3
2018-Jun-13 07:21N 44°02' E 032°25'2 6.3
2018-Jun-13 07:00N 44°02' E 032°28'3 6.3
2018-Jun-13 06:28N 44°03' E 032°33'5 6.3
2018-Jun-13 05:45N 44°04' E 032°39'4 6.2
2018-Jun-13 05:06N 44°05' E 032°44'1 6.0
2018-Jun-13 04:53N 44°05' E 032°46'2 6.0
2018-Jun-13 04:30N 44°06' E 032°49'3 6.2
2018-Jun-13 04:00N 44°07' E 032°53'3 6.3
2018-Jun-13 03:29N 44°08' E 032°57'3 6.4
2018-Jun-13 03:00N 44°10' E 033°01'3 6.5
2018-Jun-13 02:30N 44°11' E 033°05'3 6.6
2018-Jun-13 02:00N 44°12' E 033°10'3 6.6
2018-Jun-13 01:30N 44°14' E 033°14'3 6.5
2018-Jun-13 01:00N 44°15' E 033°18'3 6.4
2018-Jun-13 00:30N 44°16' E 033°22'3 6.2
2018-Jun-13 00:00N 44°17' E 033°26'3 6.4
2018-Jun-12 23:30N 44°18' E 033°30'3 6.3
2018-Jun-12 22:59N 44°18' E 033°35'3 6.1
2018-Jun-12 22:30N 44°18' E 033°39'10 5.8
2018-Jun-12 20:48N 44°18' E 033°53'  

Dump ship's entire track history